Hauptseite
METAR-TAF:

METAR-TAF

Flughäfen :

Flughafen Pristina

Priština, Kosovo

Breite: 42-34-27N, Länge: 21-02-09E, Höhe: 545 m

Beobachtung

Neuester Wetterbericht von vor 13 Minuten, um 22:00 UTC
Wind 5 kt aus Nord/Nordost
Temperatur 6°C
Luftfeuchtigkeit 39%
Luftdruck 1024 hPa
Sichtweite 10 km oder mehr
keine Wolken unter 1500 m und keine Kumulonimbus oder Gewitterwolken

METAR: BKPR 082200Z 02005KT CAVOK 06/M07 Q1024 NOSIG

Zeit: 00:13 (22:13 UTC)

Prognose

Neuester Wetterbericht von vor 4 Stunden und 43 Minuten, um 17:30 UTC
Gültige Prognose vom 08 um 18 UTC bis 09 um 18 UTC
Wind 8 kt aus Nord/Nordost
Sichtweite 10 km oder mehr
keine Wolken unter 1500 m und keine Kumulonimbus oder Gewitterwolken

TAF: BKPR 081730Z 0818/0918 03008KT CAVOK

Wetterbeobachtungen und Prognosen von mehr als 4000 Flughäfen (METAR und TAF Bericht).

Die verfügbaren Stationen werden durch gelbe und rote Markierungen auf der Karte dargestellt.

Führen Sie die Maus auf sie, um den Namen der Station zu sehen.

Darauf klicken, um die Beobachtung von Wetterbeobachtungen und Prognosen zu sehen.

Um die Karte zu ändern : klicken Sie auf den grünen Tasten mit einem schwarzen Kreuz Zum Vergrößern, auf den grünen Button mit einem Gedankenstrich zu verkleinern, oder auf die grünen Pfeile für benachbarte Karten.


METAR-TAF: